Time;durP1;ratioP1;P1;durP2;ratioP2;P2;SDS_P1;SDS_P2;PMS_P1;PMS_P2;Temp;Humidity;BMP_temperature;BMP_pressure;BME280_temperature;BME280_humidity;BME280_pressure;Samples;Min_cycle;Max_cycle;Signal;HPM_P1;HPM_P2
2020/12/09 00:00:28;;;;;;;62.70;31.63;;;4.00;99.90;;;;;;5074306;28;20827;-90
2020/12/09 00:02:55;;;;;;;51.67;28.90;;;4.00;99.90;;;;;;5061342;28;20503;-89
2020/12/09 00:05:23;;;;;;;60.77;30.00;;;4.10;99.90;;;;;;5064771;28;20461;-87
2020/12/09 00:07:49;;;;;;;60.00;33.20;;;4.10;99.90;;;;;;5062903;28;20467;-86
2020/12/09 00:10:14;;;;;;;62.77;34.57;;;4.20;99.90;;;;;;5053929;28;20854;-87
2020/12/09 00:12:40;;;;;;;54.13;32.83;;;4.20;99.90;;;;;;5064122;28;20502;-91
2020/12/09 00:15:09;;;;;;;67.30;36.77;;;4.10;99.90;;;;;;5050823;28;20945;-88
2020/12/09 00:17:35;;;;;;;59.83;33.50;;;4.20;99.90;;;;;;5054985;28;20192;-91
2020/12/09 00:20:02;;;;;;;68.43;34.40;;;4.20;99.90;;;;;;5064400;28;20902;-86
2020/12/09 00:22:28;;;;;;;56.60;30.87;;;4.10;99.90;;;;;;5053008;28;20224;-88
2020/12/09 00:24:54;;;;;;;60.57;32.67;;;4.10;99.90;;;;;;5067397;28;20415;-90
2020/12/09 00:27:20;;;;;;;68.00;31.10;;;4.20;99.90;;;;;;5058340;28;20192;-90
2020/12/09 00:29:45;;;;;;;55.87;31.07;;;4.10;99.90;;;;;;5047154;28;20183;-89
2020/12/09 00:32:11;;;;;;;60.33;31.77;;;4.10;99.90;;;;;;5059013;28;20418;-88
2020/12/09 00:34:37;;;;;;;58.10;32.43;;;4.10;99.90;;;;;;5063400;28;20180;-89
2020/12/09 00:37:03;;;;;;;60.40;31.53;;;4.00;99.90;;;;;;5058808;28;20181;-87
2020/12/09 00:39:28;;;;;;;60.60;32.40;;;4.00;99.90;;;;;;5062917;28;20974;-87
2020/12/09 00:41:54;;;;;;;60.83;32.27;;;4.00;99.90;;;;;;5062578;28;20295;-90
2020/12/09 00:44:20;;;;;;;63.13;33.60;;;4.10;99.90;;;;;;5060368;28;20169;-91
2020/12/09 00:46:45;;;;;;;64.70;33.90;;;4.00;99.90;;;;;;5060678;28;20268;-92
2020/12/09 00:49:11;;;;;;;64.53;33.53;;;4.00;99.90;;;;;;5059373;28;20200;-90
2020/12/09 00:51:36;;;;;;;65.90;31.03;;;4.00;99.90;;;;;;5056867;28;20203;-87
2020/12/09 00:54:02;;;;;;;60.53;33.57;;;4.00;99.90;;;;;;5062135;28;20165;-86
2020/12/09 00:56:28;;;;;;;58.07;32.87;;;4.00;99.90;;;;;;5046541;28;20644;-89
2020/12/09 00:58:53;;;;;;;58.03;31.43;;;4.00;99.90;;;;;;5060222;28;20185;-89
2020/12/09 01:01:20;;;;;;;67.13;32.20;;;4.00;99.90;;;;;;5048192;28;20219;-89
2020/12/09 01:03:46;;;;;;;65.23;31.83;;;4.10;99.90;;;;;;5054979;28;20275;-89
2020/12/09 01:06:12;;;;;;;57.00;32.00;;;4.10;99.90;;;;;;5037263;28;20561;-89
2020/12/09 01:08:37;;;;;;;59.43;34.37;;;4.10;99.90;;;;;;5058680;28;20459;-89
2020/12/09 01:11:04;;;;;;;63.97;34.07;;;4.10;99.90;;;;;;5041536;28;20171;-90
2020/12/09 01:13:30;;;;;;;57.50;30.50;;;4.10;99.90;;;;;;5051507;28;20170;-90
2020/12/09 01:15:56;;;;;;;58.37;30.43;;;4.00;99.90;;;;;;5060261;28;20483;-91
2020/12/09 01:18:21;;;;;;;55.53;30.60;;;4.00;99.90;;;;;;5040843;28;20180;-88
2020/12/09 01:20:47;;;;;;;55.63;28.17;;;4.10;99.90;;;;;;5052795;28;20700;-88
2020/12/09 01:23:14;;;;;;;65.57;34.73;;;4.00;99.90;;;;;;5046364;28;20178;-88
2020/12/09 01:25:39;;;;;;;58.87;28.77;;;4.00;99.90;;;;;;5057813;28;20525;-88
2020/12/09 01:28:05;;;;;;;53.00;29.87;;;4.00;99.90;;;;;;5059908;28;20428;-87
2020/12/09 01:30:32;;;;;;;63.50;33.50;;;4.10;99.90;;;;;;5056832;28;20698;-89
2020/12/09 01:32:59;;;;;;;56.70;28.40;;;4.10;99.90;;;;;;5040894;28;20177;-88
2020/12/09 01:35:25;;;;;;;67.53;32.60;;;4.10;99.90;;;;;;5068231;28;20434;-88
2020/12/09 01:37:51;;;;;;;61.70;32.07;;;4.10;99.90;;;;;;5056862;28;20960;-89
2020/12/09 01:40:18;;;;;;;60.47;32.13;;;4.10;99.90;;;;;;5046898;28;21002;-89
2020/12/09 01:42:43;;;;;;;60.90;30.83;;;4.10;99.90;;;;;;5057280;28;20467;-89
2020/12/09 01:45:09;;;;;;;62.13;29.50;;;4.10;99.90;;;;;;5046058;28;20419;-92
2020/12/09 01:47:36;;;;;;;62.53;33.10;;;4.10;99.90;;;;;;5059504;28;20264;-89
2020/12/09 01:50:02;;;;;;;56.33;27.80;;;4.10;99.90;;;;;;5053139;28;20171;-87
2020/12/09 01:52:28;;;;;;;72.73;34.10;;;4.10;99.90;;;;;;5062775;28;20412;-90
2020/12/09 01:54:55;;;;;;;59.77;31.50;;;4.00;99.90;;;;;;5059802;28;20425;-89
2020/12/09 01:57:22;;;;;;;58.90;31.07;;;4.00;99.90;;;;;;5059370;28;20224;-89
2020/12/09 01:59:47;;;;;;;63.70;30.73;;;4.00;99.90;;;;;;5057284;28;20417;-89
2020/12/09 02:02:14;;;;;;;63.60;32.60;;;4.10;99.90;;;;;;5050495;28;21046;-87
2020/12/09 02:04:41;;;;;;;57.77;30.40;;;4.10;99.90;;;;;;5046477;28;20276;-89
2020/12/09 02:07:07;;;;;;;59.30;31.53;;;4.10;99.90;;;;;;5038287;28;20951;-88
2020/12/09 02:09:33;;;;;;;62.10;28.83;;;4.10;99.90;;;;;;5039589;28;20442;-91
2020/12/09 02:11:58;;;;;;;60.03;29.93;;;4.00;99.90;;;;;;5074684;28;20418;-92
2020/12/09 02:14:24;;;;;;;56.50;30.87;;;4.10;99.90;;;;;;5056827;28;20175;-86
2020/12/09 02:16:52;;;;;;;65.90;31.70;;;4.10;99.90;;;;;;5045787;28;20272;-88
2020/12/09 02:19:18;;;;;;;57.90;28.67;;;4.00;99.90;;;;;;5066390;28;20497;-88
2020/12/09 02:21:44;;;;;;;65.70;31.10;;;4.00;99.90;;;;;;5037218;28;20555;-87
2020/12/09 02:24:10;;;;;;;53.60;29.57;;;4.00;99.90;;;;;;5054851;28;20169;-87
2020/12/09 02:26:44;;;;;;;60.50;30.30;;;4.00;99.90;;;;;;5037862;28;20416;-89
2020/12/09 02:29:11;;;;;;;53.40;28.83;;;4.00;99.90;;;;;;5038382;28;20172;-89
2020/12/09 02:31:37;;;;;;;55.67;27.97;;;4.00;99.90;;;;;;5037921;28;20417;-90
2020/12/09 02:34:02;;;;;;;58.47;31.30;;;4.10;99.90;;;;;;5047272;28;20426;-87
2020/12/09 02:36:28;;;;;;;60.43;30.23;;;4.10;99.90;;;;;;5079632;28;20410;-88
2020/12/09 02:38:54;;;;;;;54.50;32.10;;;4.10;99.90;;;;;;5081288;28;20419;-87
2020/12/09 02:41:19;;;;;;;52.30;27.10;;;4.20;99.90;;;;;;5082904;28;20245;-90
2020/12/09 02:43:45;;;;;;;58.43;28.23;;;4.20;99.90;;;;;;5077628;28;20511;-89
2020/12/09 02:46:11;;;;;;;62.47;27.93;;;4.20;99.90;;;;;;5059569;28;20217;-91
2020/12/09 02:48:36;;;;;;;55.50;27.30;;;4.20;99.90;;;;;;5057944;28;20630;-90
2020/12/09 02:51:02;;;;;;;50.70;29.17;;;4.20;99.90;;;;;;5075328;28;20537;-91
2020/12/09 02:53:27;;;;;;;67.07;30.03;;;4.20;99.90;;;;;;5057783;28;20176;-90
2020/12/09 02:55:53;;;;;;;62.50;31.50;;;4.20;99.90;;;;;;5057099;28;20691;-90
2020/12/09 02:58:18;;;;;;;53.70;27.67;;;4.30;99.90;;;;;;5057414;28;20641;-91
2020/12/09 03:00:44;;;;;;;55.80;27.37;;;4.30;99.90;;;;;;5075140;28;20222;-91
2020/12/09 03:03:09;;;;;;;53.03;28.53;;;4.40;99.90;;;;;;5057310;28;20275;-90
2020/12/09 03:05:35;;;;;;;58.60;28.17;;;4.30;99.90;;;;;;5057103;28;20223;-91
2020/12/09 03:08:01;;;;;;;58.90;29.47;;;4.30;99.90;;;;;;5075125;28;20183;-90
2020/12/09 03:10:26;;;;;;;57.80;30.13;;;4.20;99.90;;;;;;5056819;28;20192;-89
2020/12/09 03:12:52;;;;;;;57.07;28.07;;;4.20;99.90;;;;;;5057369;28;20632;-91
2020/12/09 03:15:17;;;;;;;58.33;31.23;;;4.30;99.90;;;;;;5057091;28;20840;-91
2020/12/09 03:17:43;;;;;;;55.93;27.70;;;4.30;99.90;;;;;;5075127;28;20173;-90
2020/12/09 03:20:08;;;;;;;65.33;30.47;;;4.30;99.90;;;;;;5074617;28;20252;-90
2020/12/09 03:22:34;;;;;;;57.43;27.10;;;4.30;99.90;;;;;;5074638;28;20254;-90
2020/12/09 03:25:00;;;;;;;55.40;29.00;;;4.30;99.90;;;;;;5056458;28;20592;-91
2020/12/09 03:27:25;;;;;;;49.93;27.40;;;4.20;99.90;;;;;;5056967;28;20173;-90
2020/12/09 03:29:51;;;;;;;57.70;28.57;;;4.30;99.90;;;;;;5056856;28;20172;-91
2020/12/09 03:32:16;;;;;;;60.23;28.97;;;4.30;99.90;;;;;;5057255;28;20177;-90
2020/12/09 03:34:42;;;;;;;53.90;28.30;;;4.30;99.90;;;;;;5056877;28;20232;-90
2020/12/09 03:37:07;;;;;;;53.20;26.63;;;4.40;99.90;;;;;;5056860;28;20181;-90
2020/12/09 03:39:33;;;;;;;56.77;31.13;;;4.40;99.90;;;;;;5074391;28;20172;-89
2020/12/09 03:41:58;;;;;;;54.80;29.20;;;4.40;99.90;;;;;;5056730;28;20223;-91
2020/12/09 03:44:24;;;;;;;51.93;29.03;;;4.50;99.90;;;;;;5056862;28;20168;-91
2020/12/09 03:46:49;;;;;;;54.60;29.40;;;4.50;99.90;;;;;;5074556;28;20176;-92
2020/12/09 03:49:15;;;;;;;55.20;28.20;;;4.50;99.90;;;;;;5056661;28;20606;-92
2020/12/09 03:51:41;;;;;;;53.90;27.00;;;4.40;99.90;;;;;;5074737;28;20542;-92
2020/12/09 03:54:06;;;;;;;50.00;25.77;;;4.40;99.90;;;;;;5056716;28;20560;-92
2020/12/09 03:56:33;;;;;;;59.67;30.07;;;4.50;99.90;;;;;;5056637;28;20181;-92
2020/12/09 03:58:59;;;;;;;55.57;27.50;;;4.50;99.90;;;;;;5056594;28;20173;-92
2020/12/09 04:01:24;;;;;;;55.73;30.80;;;4.60;99.90;;;;;;5056717;28;20527;-93
2020/12/09 04:03:50;;;;;;;54.30;26.47;;;4.60;99.90;;;;;;5074156;28;20221;-92
2020/12/09 04:06:15;;;;;;;58.97;27.20;;;4.70;99.90;;;;;;5056830;28;20187;-91
2020/12/09 04:08:41;;;;;;;56.47;31.10;;;4.60;99.90;;;;;;5056100;28;20205;-90
2020/12/09 04:11:06;;;;;;;54.23;29.50;;;4.70;99.90;;;;;;5056418;28;20165;-91
2020/12/09 04:13:32;;;;;;;60.73;29.13;;;4.70;99.90;;;;;;5056588;28;20252;-91
2020/12/09 04:15:57;;;;;;;56.63;31.87;;;4.60;99.90;;;;;;5074243;28;20174;-92
2020/12/09 04:18:23;;;;;;;54.43;28.27;;;4.60;99.90;;;;;;5056416;28;20241;-90
2020/12/09 04:20:49;;;;;;;54.63;29.73;;;4.50;99.90;;;;;;5056172;28;20183;-90
2020/12/09 04:23:14;;;;;;;55.37;29.40;;;4.50;99.90;;;;;;5056535;28;20220;-91
2020/12/09 04:25:40;;;;;;;52.60;26.93;;;4.60;99.90;;;;;;5073876;28;20176;-91
2020/12/09 04:28:05;;;;;;;59.60;30.67;;;4.60;99.90;;;;;;5056627;28;20259;-91
2020/12/09 04:30:31;;;;;;;55.30;27.63;;;4.60;99.90;;;;;;5074202;28;20302;-91
2020/12/09 04:32:57;;;;;;;52.50;29.10;;;4.60;99.90;;;;;;5056613;28;20748;-92
2020/12/09 04:35:22;;;;;;;54.33;28.53;;;4.60;99.90;;;;;;5056390;28;20169;-92
2020/12/09 04:37:54;;;;;;;59.30;28.70;;;4.50;99.90;;;;;;5056170;28;20636;-92
2020/12/09 04:40:21;;;;;;;55.80;27.43;;;4.60;99.90;;;;;;5053955;28;20185;-92
2020/12/09 04:42:59;;;;;;;59.97;31.30;;;4.50;99.90;;;;;;5055280;28;20549;-92
2020/12/09 04:45:30;;;;;;;61.30;29.80;;;4.50;99.90;;;;;;5057982;28;20441;-92
2020/12/09 04:48:15;;;;;;;55.27;29.07;;;4.50;99.90;;;;;;5040612;28;20412;-93
2020/12/09 04:50:50;;;;;;;54.87;28.73;;;4.60;99.90;;;;;;5041186;28;20416;-91
2020/12/09 04:53:27;;;;;;;50.70;27.57;;;4.70;99.90;;;;;;5040550;28;20430;-89
2020/12/09 04:55:58;;;;;;;57.97;29.10;;;4.70;99.90;;;;;;5038984;28;20404;-88
2020/12/09 04:58:45;;;;;;;57.67;29.40;;;4.80;99.90;;;;;;5039123;28;20431;-88
2020/12/09 05:01:13;;;;;;;49.23;26.07;;;4.80;99.90;;;;;;5056660;28;20593;-89
2020/12/09 05:03:40;;;;;;;55.73;28.23;;;4.80;99.90;;;;;;5056523;28;20494;-87
2020/12/09 05:06:06;;;;;;;56.00;28.23;;;4.90;99.90;;;;;;5039158;28;20754;-90
2020/12/09 05:08:35;;;;;;;54.60;28.53;;;4.80;99.90;;;;;;5039168;28;20515;-89
2020/12/09 05:11:04;;;;;;;50.77;27.80;;;4.80;99.90;;;;;;5056855;28;20170;-88
2020/12/09 05:13:33;;;;;;;63.80;29.17;;;4.80;99.90;;;;;;5039342;28;20761;-89
2020/12/09 05:15:58;;;;;;;46.90;26.57;;;4.80;99.90;;;;;;5057100;28;20418;-89
2020/12/09 05:18:35;;;;;;;49.23;25.97;;;4.90;99.90;;;;;;5038980;28;20499;-89
2020/12/09 05:21:11;;;;;;;60.37;30.73;;;4.90;99.90;;;;;;5039131;28;20862;-91
2020/12/09 05:24:00;;;;;;;54.53;29.80;;;4.90;99.90;;;;;;5039343;28;20419;-90
2020/12/09 05:26:29;;;;;;;57.97;27.40;;;5.00;99.90;;;;;;5039085;28;20416;-90
2020/12/09 05:29:15;;;;;;;52.50;27.53;;;5.00;99.90;;;;;;5039208;28;20923;-89
2020/12/09 05:31:58;;;;;;;55.53;30.37;;;4.90;99.90;;;;;;5038913;28;20427;-89
2020/12/09 05:34:32;;;;;;;54.10;28.10;;;4.90;99.90;;;;;;5056727;28;20412;-90
2020/12/09 05:37:03;;;;;;;59.30;30.30;;;4.80;99.90;;;;;;5038648;28;20430;-89
2020/12/09 05:39:29;;;;;;;56.63;30.30;;;4.80;99.90;;;;;;5038479;28;20462;-90
2020/12/09 05:41:55;;;;;;;50.50;27.10;;;4.80;99.90;;;;;;5038833;28;20491;-88
2020/12/09 05:44:24;;;;;;;57.40;29.10;;;4.80;99.90;;;;;;5038540;28;20400;-88
2020/12/09 05:47:03;;;;;;;66.73;32.33;;;4.70;99.90;;;;;;5038562;28;20428;-88
2020/12/09 05:49:36;;;;;;;62.40;28.30;;;4.70;99.90;;;;;;5038522;28;20412;-90
2020/12/09 05:52:09;;;;;;;54.03;26.77;;;4.70;99.90;;;;;;5038446;28;20450;-88
2020/12/09 05:54:37;;;;;;;55.63;30.87;;;4.80;99.90;;;;;;5036725;28;20409;-88
2020/12/09 05:57:04;;;;;;;54.33;29.27;;;4.80;99.90;;;;;;5038238;28;20427;-89
2020/12/09 05:59:44;;;;;;;52.23;27.83;;;4.70;99.90;;;;;;5038285;28;20816;-89
2020/12/09 06:02:15;;;;;;;56.03;28.57;;;4.70;99.90;;;;;;5038307;28;20470;-89
2020/12/09 06:04:47;;;;;;;49.07;29.60;;;4.80;99.90;;;;;;5055773;28;20887;-90
2020/12/09 06:07:14;;;;;;;51.40;28.63;;;4.80;99.90;;;;;;5038058;28;20783;-91
2020/12/09 06:09:40;;;;;;;54.20;29.50;;;4.80;99.90;;;;;;5038082;28;20470;-88
2020/12/09 06:12:06;;;;;;;54.00;29.50;;;4.80;99.90;;;;;;5055781;28;20416;-89
2020/12/09 06:14:32;;;;;;;62.53;30.20;;;4.80;99.90;;;;;;5056194;28;20404;-88
2020/12/09 06:16:59;;;;;;;58.53;29.13;;;4.80;99.90;;;;;;5038055;28;20429;-89
2020/12/09 06:19:25;;;;;;;50.47;30.57;;;4.80;99.90;;;;;;5055685;28;20430;-89
2020/12/09 06:21:55;;;;;;;56.40;28.57;;;4.80;99.90;;;;;;5037872;28;20475;-89
2020/12/09 06:24:21;;;;;;;60.13;29.93;;;4.80;99.90;;;;;;5037492;28;20174;-90
2020/12/09 06:26:48;;;;;;;63.33;32.73;;;4.80;99.90;;;;;;5037921;28;20427;-89
2020/12/09 06:29:21;;;;;;;60.77;30.30;;;4.90;99.90;;;;;;5037881;28;20440;-90
2020/12/09 06:32:01;;;;;;;57.57;31.70;;;4.90;99.90;;;;;;5037913;28;20450;-89
2020/12/09 06:34:27;;;;;;;54.60;28.70;;;4.90;99.90;;;;;;5048496;28;20493;-89
2020/12/09 06:37:12;;;;;;;57.60;29.33;;;4.80;99.90;;;;;;5075448;28;20412;-89
2020/12/09 06:39:38;;;;;;;60.77;31.13;;;4.90;99.90;;;;;;5057248;28;20172;-90
2020/12/09 06:42:07;;;;;;;61.77;30.87;;;4.80;99.90;;;;;;5057490;28;20986;-88
2020/12/09 06:44:47;;;;;;;50.83;28.10;;;4.90;99.90;;;;;;5057096;28;20180;-88
2020/12/09 06:47:12;;;;;;;56.73;28.93;;;4.90;99.90;;;;;;5057333;28;20430;-90
2020/12/09 06:49:40;;;;;;;61.10;30.80;;;4.90;99.90;;;;;;5057254;28;20419;-90
2020/12/09 06:52:08;;;;;;;66.50;32.57;;;4.90;99.90;;;;;;5057119;28;20534;-90
2020/12/09 06:54:48;;;;;;;56.23;30.17;;;4.90;99.90;;;;;;5057100;28;20415;-89
2020/12/09 06:57:25;;;;;;;54.00;30.87;;;4.80;99.90;;;;;;5057279;28;20765;-90
2020/12/09 07:00:12;;;;;;;59.23;30.20;;;4.80;99.90;;;;;;5057236;28;20427;-90
2020/12/09 07:02:41;;;;;;;61.37;29.67;;;4.80;99.90;;;;;;5075005;28;20470;-90
2020/12/09 07:05:14;;;;;;;66.97;32.30;;;4.80;99.90;;;;;;5074483;28;20455;-90
2020/12/09 07:07:43;;;;;;;60.07;30.60;;;4.80;99.90;;;;;;5057229;28;20442;-90
2020/12/09 07:10:17;;;;;;;54.07;30.80;;;4.90;99.90;;;;;;5056778;28;20460;-91
2020/12/09 07:12:43;;;;;;;57.43;29.40;;;4.90;99.90;;;;;;5057123;28;20411;-90
2020/12/09 07:15:09;;;;;;;59.37;30.40;;;4.90;99.90;;;;;;5056871;28;20480;-90
2020/12/09 07:17:34;;;;;;;52.20;27.80;;;4.80;99.90;;;;;;5057090;28;20415;-88
2020/12/09 07:20:00;;;;;;;55.10;27.97;;;4.80;99.90;;;;;;5074860;28;20625;-91
2020/12/09 07:22:27;;;;;;;55.30;30.80;;;4.80;99.90;;;;;;5056737;28;20219;-89
2020/12/09 07:24:54;;;;;;;61.07;32.37;;;4.90;99.90;;;;;;5073068;28;20173;-89
2020/12/09 07:27:23;;;;;;;46.30;27.50;;;4.90;99.90;;;;;;5056910;28;20498;-90
2020/12/09 07:29:49;;;;;;;56.07;30.27;;;4.90;99.90;;;;;;5056919;28;20423;-90
2020/12/09 07:32:19;;;;;;;56.17;27.70;;;5.00;99.90;;;;;;5074385;28;20773;-88
2020/12/09 07:35:08;;;;;;;68.57;31.77;;;5.00;99.90;;;;;;5056067;28;20473;-91
2020/12/09 07:37:38;;;;;;;49.60;27.50;;;5.00;99.90;;;;;;5074487;28;20469;-92
2020/12/09 07:40:28;;;;;;;57.37;30.50;;;5.00;99.90;;;;;;5052063;28;20420;-90
2020/12/09 07:43:13;;;;;;;55.97;30.00;;;5.00;99.90;;;;;;5036724;28;20592;-91
2020/12/09 07:45:43;;;;;;;54.80;28.33;;;4.90;99.90;;;;;;5036908;28;20427;-91
2020/12/09 07:48:17;;;;;;;60.00;30.83;;;4.90;99.90;;;;;;5036673;28;20419;-93
2020/12/09 07:50:51;;;;;;;48.93;26.23;;;5.00;99.90;;;;;;5036365;28;20421;-92
2020/12/09 07:53:17;;;;;;;57.47;29.00;;;5.00;99.90;;;;;;5036167;28;20420;-92
2020/12/09 07:55:43;;;;;;;58.10;29.00;;;5.00;99.90;;;;;;5054324;28;20408;-89
2020/12/09 07:58:11;;;;;;;55.27;28.53;;;5.00;99.90;;;;;;5052808;28;20442;-89
2020/12/09 08:00:43;;;;;;;55.83;28.87;;;5.00;99.90;;;;;;5036328;28;20177;-90
2020/12/09 08:03:24;;;;;;;48.67;27.30;;;5.00;99.90;;;;;;5055029;28;20468;-89
2020/12/09 08:05:51;;;;;;;53.40;28.10;;;5.00;99.90;;;;;;5036009;28;20431;-90
2020/12/09 08:08:21;;;;;;;55.83;29.97;;;5.00;99.90;;;;;;5035803;28;20446;-87
2020/12/09 08:10:48;;;;;;;53.13;28.50;;;5.10;99.90;;;;;;5054110;28;20491;-89
2020/12/09 08:13:14;;;;;;;54.40;28.93;;;5.10;99.90;;;;;;5053238;28;20416;-90
2020/12/09 08:15:42;;;;;;;49.17;28.10;;;5.10;99.90;;;;;;5054989;28;20432;-87
2020/12/09 08:18:19;;;;;;;54.10;28.53;;;5.10;99.90;;;;;;5035764;28;20416;-88
2020/12/09 08:20:50;;;;;;;58.03;31.70;;;5.10;99.90;;;;;;5054214;28;20404;-90
2020/12/09 08:23:16;;;;;;;47.17;27.57;;;5.10;99.90;;;;;;5040194;28;21149;-89
2020/12/09 08:25:53;;;;;;;58.50;29.40;;;5.00;99.90;;;;;;5036081;28;20452;-88
2020/12/09 08:28:24;;;;;;;51.97;27.73;;;5.00;99.90;;;;;;5053553;28;20419;-88
2020/12/09 08:30:50;;;;;;;55.17;29.23;;;4.90;99.90;;;;;;5036200;28;20533;-88
2020/12/09 08:33:22;;;;;;;61.13;28.87;;;5.00;99.90;;;;;;5071642;28;20423;-90
2020/12/09 08:35:58;;;;;;;50.70;26.47;;;4.90;99.90;;;;;;5055767;28;20439;-88
2020/12/09 08:38:41;;;;;;;49.23;25.97;;;4.90;99.90;;;;;;5055600;28;20475;-90
2020/12/09 08:41:12;;;;;;;48.17;26.60;;;5.00;99.90;;;;;;5075138;28;20414;-91
2020/12/09 08:43:39;;;;;;;52.03;27.50;;;5.00;99.90;;;;;;5057118;28;20426;-89
2020/12/09 08:46:07;;;;;;;55.13;29.10;;;5.00;99.90;;;;;;5074323;28;20404;-90
2020/12/09 08:48:39;;;;;;;60.10;28.90;;;5.10;99.90;;;;;;5055741;28;20430;-88
2020/12/09 08:51:06;;;;;;;52.67;25.07;;;5.00;99.90;;;;;;5055650;28;20513;-90
2020/12/09 08:53:32;;;;;;;51.93;25.10;;;5.10;99.90;;;;;;5055239;28;20462;-88
2020/12/09 08:55:58;;;;;;;54.97;28.83;;;5.10;99.90;;;;;;5055660;28;20414;-89
2020/12/09 08:58:23;;;;;;;45.43;25.43;;;5.10;99.90;;;;;;5073805;28;20407;-89
2020/12/09 09:00:49;;;;;;;49.90;27.67;;;5.00;99.90;;;;;;5055587;28;20180;-90
2020/12/09 09:03:18;;;;;;;51.60;26.73;;;5.00;99.90;;;;;;5055538;28;20184;-89
2020/12/09 09:05:46;;;;;;;45.63;25.77;;;5.00;99.90;;;;;;5055763;28;20176;-89
2020/12/09 09:08:14;;;;;;;48.57;28.63;;;5.00;99.90;;;;;;5073008;28;20811;-88
2020/12/09 09:10:42;;;;;;;51.50;27.60;;;5.10;99.90;;;;;;5073492;28;20407;-89
2020/12/09 09:13:08;;;;;;;46.07;26.27;;;5.10;99.90;;;;;;5055752;28;20426;-90
2020/12/09 09:15:34;;;;;;;56.83;28.37;;;5.20;99.90;;;;;;5055633;28;20510;-90
2020/12/09 09:18:02;;;;;;;55.37;28.07;;;5.20;99.90;;;;;;5073586;28;20469;-91
2020/12/09 09:20:28;;;;;;;46.77;24.60;;;5.30;99.90;;;;;;5055608;28;20430;-90
2020/12/09 09:22:54;;;;;;;48.23;25.43;;;5.40;99.90;;;;;;5055009;28;20523;-89
2020/12/09 09:25:20;;;;;;;53.77;28.63;;;5.40;99.90;;;;;;5073277;28;20494;-90
2020/12/09 09:27:47;;;;;;;43.67;24.30;;;5.40;99.90;;;;;;5056076;28;20263;-90
2020/12/09 09:30:13;;;;;;;47.50;26.70;;;5.50;99.90;;;;;;5059654;28;20400;-88
2020/12/09 09:32:39;;;;;;;50.13;26.63;;;5.50;99.90;;;;;;5059451;28;20477;-89
2020/12/09 09:35:05;;;;;;;54.03;25.80;;;5.50;99.90;;;;;;5060212;28;20173;-90
2020/12/09 09:37:31;;;;;;;52.43;26.73;;;5.60;99.90;;;;;;5061889;28;20181;-89
2020/12/09 09:39:57;;;;;;;52.83;26.77;;;5.60;99.90;;;;;;5060691;28;20834;-89
2020/12/09 09:42:22;;;;;;;48.43;26.80;;;5.50;99.90;;;;;;5061999;28;20474;-89
2020/12/09 09:44:49;;;;;;;49.83;27.13;;;5.50;99.90;;;;;;5060735;28;20415;-89
2020/12/09 09:47:15;;;;;;;49.10;26.97;;;5.50;99.90;;;;;;5059908;28;20179;-88
2020/12/09 09:49:41;;;;;;;51.07;29.37;;;5.60;99.90;;;;;;5076502;28;20418;-90
2020/12/09 09:52:07;;;;;;;45.90;26.83;;;5.60;99.90;;;;;;5076608;28;20874;-90
2020/12/09 09:54:33;;;;;;;49.60;27.40;;;5.60;99.90;;;;;;5058319;28;20222;-87
2020/12/09 09:56:59;;;;;;;55.20;26.80;;;5.50;99.90;;;;;;5058601;28;20211;-89
2020/12/09 09:59:25;;;;;;;48.83;27.37;;;5.50;99.90;;;;;;5058347;28;20465;-89
2020/12/09 10:01:54;;;;;;;49.70;27.77;;;5.40;99.90;;;;;;5058143;28;20512;-88
2020/12/09 10:04:20;;;;;;;51.50;27.00;;;5.40;99.90;;;;;;5058227;28;20462;-88
2020/12/09 10:06:46;;;;;;;53.83;27.63;;;5.40;99.90;;;;;;5076282;28;20460;-88
2020/12/09 10:09:13;;;;;;;50.73;29.00;;;5.30;99.90;;;;;;5058163;28;20411;-88
2020/12/09 10:11:40;;;;;;;56.00;30.43;;;5.30;99.90;;;;;;5058150;28;20530;-88
2020/12/09 10:14:07;;;;;;;55.37;27.17;;;5.30;99.90;;;;;;5058241;28;20779;-88
2020/12/09 10:16:33;;;;;;;56.20;29.00;;;5.40;99.90;;;;;;5058299;28;20451;-88
2020/12/09 10:19:00;;;;;;;52.30;28.43;;;5.30;99.90;;;;;;5076048;28;20487;-89
2020/12/09 10:21:30;;;;;;;57.47;30.93;;;5.30;99.90;;;;;;5075931;28;20451;-89
2020/12/09 10:23:57;;;;;;;60.13;30.20;;;5.30;99.90;;;;;;5057510;28;20435;-90
2020/12/09 10:26:27;;;;;;;44.33;26.20;;;5.30;99.90;;;;;;5057935;28;20473;-89
2020/12/09 10:28:54;;;;;;;50.57;29.07;;;5.40;99.90;;;;;;5074818;28;20434;-89
2020/12/09 10:31:20;;;;;;;51.33;27.17;;;5.40;99.90;;;;;;5058048;28;20419;-89
2020/12/09 10:33:46;;;;;;;53.57;28.67;;;5.40;99.90;;;;;;5058858;28;20415;-88
2020/12/09 10:36:11;;;;;;;53.13;28.60;;;5.40;99.90;;;;;;5059219;28;20414;-89
2020/12/09 10:38:37;;;;;;;51.30;28.80;;;5.30;99.90;;;;;;5058300;28;20286;-89
2020/12/09 10:41:02;;;;;;;55.10;26.37;;;5.30;99.90;;;;;;5074547;28;20181;-90
2020/12/09 10:43:28;;;;;;;55.90;28.93;;;5.40;99.90;;;;;;5057554;28;20180;-89
2020/12/09 10:45:53;;;;;;;56.57;29.73;;;5.30;99.90;;;;;;5057331;28;20177;-89
2020/12/09 10:48:19;;;;;;;60.97;31.13;;;5.30;99.90;;;;;;5075268;28;20177;-89
2020/12/09 10:50:46;;;;;;;50.13;26.80;;;5.20;99.90;;;;;;5074894;28;20248;-90
2020/12/09 10:53:11;;;;;;;52.93;29.80;;;5.20;99.90;;;;;;5057042;28;20420;-89
2020/12/09 10:55:38;;;;;;;49.33;26.80;;;5.20;99.90;;;;;;5057335;28;20227;-88
2020/12/09 10:58:05;;;;;;;54.40;27.60;;;5.20;99.90;;;;;;5075119;28;20417;-91
2020/12/09 11:00:30;;;;;;;50.23;26.50;;;5.20;99.90;;;;;;5057292;28;20423;-88
2020/12/09 11:02:56;;;;;;;53.93;30.57;;;5.20;99.90;;;;;;5057069;28;20471;-89
2020/12/09 11:05:21;;;;;;;51.43;30.23;;;5.20;99.90;;;;;;5056942;28;20707;-89
2020/12/09 11:07:47;;;;;;;57.97;31.53;;;5.20;99.90;;;;;;5056714;28;20184;-87
2020/12/09 11:10:12;;;;;;;57.23;29.73;;;5.10;99.90;;;;;;5074632;28;20180;-89
2020/12/09 11:12:38;;;;;;;59.47;31.47;;;5.40;99.90;;;;;;5057295;28;20647;-89
2020/12/09 11:15:04;;;;;;;50.13;28.70;;;5.30;99.90;;;;;;5074920;28;20165;-89
2020/12/09 11:17:30;;;;;;;60.00;30.03;;;5.30;99.90;;;;;;5057086;28;20184;-89
2020/12/09 11:19:55;;;;;;;62.27;31.07;;;5.40;99.90;;;;;;5074721;28;20411;-89
2020/12/09 11:22:21;;;;;;;59.50;31.07;;;5.40;99.90;;;;;;5056342;28;20212;-89
2020/12/09 11:24:47;;;;;;;55.47;30.70;;;5.40;99.90;;;;;;5073353;28;20176;-89
2020/12/09 11:27:14;;;;;;;54.60;29.60;;;5.40;99.90;;;;;;5056254;28;20268;-89
2020/12/09 11:29:40;;;;;;;60.50;29.30;;;5.40;99.90;;;;;;5074044;28;20439;-89
2020/12/09 11:32:05;;;;;;;62.57;31.60;;;5.50;99.90;;;;;;5074258;28;20465;-89
2020/12/09 11:34:31;;;;;;;54.53;27.20;;;5.50;99.90;;;;;;5073212;28;20415;-90
2020/12/09 11:36:58;;;;;;;55.03;29.27;;;5.60;99.90;;;;;;5074602;28;20177;-90
2020/12/09 11:39:25;;;;;;;52.60;29.83;;;5.60;99.90;;;;;;5056302;28;20208;-90
2020/12/09 11:41:50;;;;;;;52.20;27.57;;;5.60;99.90;;;;;;5074298;28;20524;-89
2020/12/09 11:44:16;;;;;;;54.40;29.43;;;5.60;99.90;;;;;;5056783;28;20915;-88
2020/12/09 11:46:41;;;;;;;54.23;29.53;;;5.60;99.90;;;;;;5073783;28;20180;-88
2020/12/09 11:49:07;;;;;;;55.83;29.97;;;5.50;99.90;;;;;;5073076;28;20279;-89
2020/12/09 11:51:33;;;;;;;59.83;31.47;;;5.60;99.90;;;;;;5073571;28;20165;-88
2020/12/09 11:53:58;;;;;;;53.30;28.90;;;5.70;99.90;;;;;;5073283;28;20165;-89
2020/12/09 11:56:26;;;;;;;52.77;28.83;;;5.70;99.90;;;;;;5072475;28;20249;-89
2020/12/09 11:58:52;;;;;;;43.37;26.90;;;5.70;99.90;;;;;;5055542;28;20177;-88
2020/12/09 12:01:18;;;;;;;46.37;27.30;;;5.80;99.90;;;;;;5072063;28;20458;-87
2020/12/09 12:03:44;;;;;;;48.20;24.83;;;5.70;99.90;;;;;;5072243;28;20665;-88
2020/12/09 12:06:28;;;;;;;51.13;28.60;;;5.50;99.90;;;;;;5055695;28;20426;-87
2020/12/09 12:08:55;;;;;;;44.87;25.07;;;5.50;99.90;;;;;;5072136;28;20191;-88
2020/12/09 12:11:23;;;;;;;51.03;27.73;;;5.40;99.90;;;;;;5055556;28;20473;-86
2020/12/09 12:13:49;;;;;;;52.30;30.23;;;5.40;99.90;;;;;;5072311;28;20992;-87
2020/12/09 12:16:21;;;;;;;48.90;27.07;;;5.40;99.90;;;;;;5073545;28;20461;-87
2020/12/09 12:18:47;;;;;;;47.03;25.93;;;5.40;99.90;;;;;;5055680;28;21010;-88
2020/12/09 12:21:17;;;;;;;45.50;26.20;;;5.40;99.90;;;;;;5055621;28;20423;-89
2020/12/09 12:23:45;;;;;;;48.53;27.20;;;5.40;99.90;;;;;;5056500;28;20934;-88
2020/12/09 12:26:14;;;;;;;48.30;23.97;;;5.40;99.90;;;;;;5072729;28;20411;-88
2020/12/09 12:28:39;;;;;;;44.97;26.57;;;5.40;99.90;;;;;;5073558;28;20475;-89
2020/12/09 12:31:05;;;;;;;49.23;28.77;;;5.40;99.90;;;;;;5073331;28;20493;-89
2020/12/09 12:33:30;;;;;;;52.00;28.67;;;5.50;99.90;;;;;;5071994;28;20181;-88
2020/12/09 12:35:56;;;;;;;52.30;28.00;;;5.50;99.90;;;;;;5071789;28;20578;-88
2020/12/09 12:38:22;;;;;;;58.53;29.50;;;5.50;99.90;;;;;;5072889;28;20183;-87